createdAt,value
2023-05-14T00:00:37.262Z,15.70
2023-05-14T00:03:08.038Z,15.50
2023-05-14T00:05:40.307Z,15.30
2023-05-14T00:08:10.689Z,15.00
2023-05-14T00:10:40.866Z,14.80
2023-05-14T00:13:11.375Z,14.60
2023-05-14T00:15:41.773Z,14.40
2023-05-14T00:18:12.875Z,14.20
2023-05-14T00:20:45.057Z,14.00
2023-05-14T00:23:15.308Z,13.90
2023-05-14T00:25:45.498Z,13.70
2023-05-14T00:28:15.910Z,13.70
2023-05-14T00:30:47.814Z,13.60
2023-05-14T00:33:18.396Z,13.50
2023-05-14T00:35:51.166Z,13.50
2023-05-14T00:38:21.763Z,13.40
2023-05-14T00:40:52.520Z,13.30
2023-05-14T00:43:23.556Z,13.10
2023-05-14T00:45:54.986Z,13.00
2023-05-14T00:48:25.659Z,12.80
2023-05-14T00:50:57.677Z,12.80
2023-05-14T00:53:28.125Z,12.70
2023-05-14T00:55:58.641Z,12.60
2023-05-14T00:58:30.883Z,12.50
2023-05-14T01:01:01.239Z,12.40
2023-05-14T01:03:32.781Z,12.30
2023-05-14T01:06:12.166Z,12.30
2023-05-14T01:08:53.424Z,12.20
2023-05-14T01:11:28.443Z,12.10
2023-05-14T01:14:06.075Z,12.00
2023-05-14T01:16:38.188Z,12.00
2023-05-14T01:19:12.345Z,11.90
2023-05-14T01:21:46.944Z,11.80
2023-05-14T01:24:17.896Z,11.70
2023-05-14T01:26:48.246Z,11.60
2023-05-14T01:29:24.300Z,11.50
2023-05-14T01:31:58.407Z,11.50
2023-05-14T01:34:30.850Z,11.40
2023-05-14T01:37:06.250Z,11.30
2023-05-14T01:39:38.548Z,11.30
2023-05-14T01:42:10.476Z,11.20
2023-05-14T01:44:41.111Z,11.20
2023-05-14T01:47:11.298Z,11.10
2023-05-14T01:49:41.674Z,11.10
2023-05-14T01:52:13.985Z,11.00
2023-05-14T01:54:44.415Z,10.90
2023-05-14T01:57:15.124Z,10.80
2023-05-14T01:59:45.358Z,10.60
2023-05-14T02:02:15.569Z,10.40
2023-05-14T02:04:45.798Z,10.30
2023-05-14T02:07:17.597Z,10.20
2023-05-14T02:09:48.302Z,10.10
2023-05-14T02:12:18.512Z,10.00
2023-05-14T02:14:48.852Z,9.90
2023-05-14T02:17:19.009Z,9.80
2023-05-14T02:19:49.273Z,9.80
2023-05-14T02:22:21.156Z,9.80
2023-05-14T02:24:52.101Z,9.70
2023-05-14T02:27:22.533Z,9.80
2023-05-14T02:29:52.731Z,9.70
2023-05-14T02:32:22.986Z,9.60
2023-05-14T02:34:53.435Z,9.50
2023-05-14T02:37:25.424Z,9.40
2023-05-14T02:39:55.650Z,9.30
2023-05-14T02:42:26.345Z,9.20
2023-05-14T02:44:56.522Z,9.20
2023-05-14T02:47:27.032Z,9.10
2023-05-14T02:49:57.246Z,9.00
2023-05-14T02:52:29.172Z,9.00
2023-05-14T02:54:59.353Z,9.00
2023-05-14T02:57:29.653Z,8.90
2023-05-14T02:59:59.856Z,8.80
2023-05-14T03:02:30.614Z,8.70
2023-05-14T03:05:01.484Z,8.50
2023-05-14T03:07:33.288Z,8.50
2023-05-14T03:10:03.627Z,8.40
2023-05-14T03:12:33.825Z,8.40
2023-05-14T03:15:04.110Z,8.40
2023-05-14T03:17:34.595Z,8.40
2023-05-14T03:20:05.183Z,8.50
2023-05-14T03:22:37.348Z,8.50
2023-05-14T03:25:08.247Z,8.60
2023-05-14T03:27:39.699Z,8.70
2023-05-14T03:30:11.576Z,8.70
2023-05-14T03:32:41.982Z,8.80
2023-05-14T03:35:12.618Z,8.80
2023-05-14T03:37:44.672Z,8.80
2023-05-14T03:40:15.465Z,8.70
2023-05-14T03:42:45.813Z,8.80
2023-05-14T03:45:16.037Z,8.80
2023-05-14T03:47:46.267Z,8.70
2023-05-14T03:50:16.809Z,8.60
2023-05-14T03:52:48.600Z,8.60
2023-05-14T03:55:19.481Z,8.50
2023-05-14T03:57:50.334Z,8.40
2023-05-14T04:00:21.051Z,8.40
2023-05-14T04:02:51.774Z,8.30
2023-05-14T04:05:22.220Z,8.20
2023-05-14T04:07:54.109Z,8.20
2023-05-14T04:10:24.606Z,8.20
2023-05-14T04:12:55.771Z,8.00
2023-05-14T04:15:26.253Z,7.90
2023-05-14T04:17:56.420Z,7.70
2023-05-14T04:20:26.985Z,7.60
2023-05-14T04:22:58.939Z,7.40
2023-05-14T04:25:29.078Z,7.20
2023-05-14T04:27:59.279Z,7.20
2023-05-14T04:30:29.436Z,7.00
2023-05-14T04:32:59.628Z,6.90
2023-05-14T04:35:30.000Z,6.90
2023-05-14T04:38:02.086Z,6.80
2023-05-14T04:40:33.078Z,6.70
2023-05-14T04:43:03.765Z,6.60
2023-05-14T04:45:34.965Z,6.30
2023-05-14T04:48:05.833Z,6.10
2023-05-14T04:50:36.321Z,6.10
2023-05-14T04:53:08.120Z,6.20
2023-05-14T04:55:39.260Z,6.30
2023-05-14T04:58:09.419Z,6.40
2023-05-14T05:00:48.541Z,6.40
2023-05-14T05:03:19.037Z,6.40
2023-05-14T05:05:49.449Z,6.30
2023-05-14T05:08:21.282Z,6.30
2023-05-14T05:10:51.529Z,6.20
2023-05-14T05:13:21.694Z,6.10
2023-05-14T05:15:52.035Z,6.00
2023-05-14T05:18:22.743Z,5.90
2023-05-14T05:20:52.998Z,5.90
2023-05-14T05:23:24.800Z,5.80
2023-05-14T05:25:55.073Z,5.70
2023-05-14T05:28:25.227Z,5.70
2023-05-14T05:30:55.633Z,5.70
2023-05-14T05:33:26.152Z,5.70
2023-05-14T05:35:56.717Z,5.80
2023-05-14T05:38:29.055Z,5.90
2023-05-14T05:40:59.258Z,5.80
2023-05-14T05:43:29.578Z,5.80
2023-05-14T05:45:59.943Z,5.80
2023-05-14T05:48:30.416Z,5.90
2023-05-14T05:51:00.907Z,5.80
2023-05-14T05:53:32.727Z,5.80
2023-05-14T05:56:03.668Z,5.90
2023-05-14T05:58:34.180Z,6.10
2023-05-14T06:01:04.702Z,6.30
2023-05-14T06:03:34.958Z,6.40
2023-05-14T06:06:05.195Z,6.50
2023-05-14T06:08:36.975Z,6.50
2023-05-14T06:11:07.686Z,6.50
2023-05-14T06:13:37.911Z,6.50
2023-05-14T06:16:08.496Z,6.50
2023-05-14T06:18:38.807Z,6.60
2023-05-14T06:21:09.401Z,6.60
2023-05-14T06:23:41.888Z,6.50
2023-05-14T06:26:12.398Z,6.50
2023-05-14T06:28:42.527Z,6.50
2023-05-14T06:31:12.852Z,6.50
2023-05-14T06:33:43.097Z,6.40
2023-05-14T06:36:13.761Z,6.30
2023-05-14T06:38:45.857Z,6.20
2023-05-14T06:41:16.045Z,6.10
2023-05-14T06:43:46.111Z,6.00
2023-05-14T06:46:16.829Z,5.80
2023-05-14T06:48:47.211Z,5.80
2023-05-14T06:51:17.616Z,5.70
2023-05-14T06:53:49.592Z,5.60
2023-05-14T06:56:19.994Z,5.50
2023-05-14T06:58:50.218Z,5.40
2023-05-14T07:01:20.813Z,5.30
2023-05-14T07:03:51.136Z,5.20
2023-05-14T07:06:21.500Z,5.10
2023-05-14T07:08:53.973Z,5.00
2023-05-14T07:11:24.322Z,5.00
2023-05-14T07:13:54.540Z,5.00
2023-05-14T07:16:25.309Z,4.90
2023-05-14T07:18:55.664Z,4.80
2023-05-14T07:21:26.022Z,4.80
2023-05-14T07:23:58.081Z,4.70
2023-05-14T07:26:28.307Z,4.60
2023-05-14T07:28:59.075Z,4.60
2023-05-14T07:31:29.407Z,4.60
2023-05-14T07:34:00.107Z,4.60
2023-05-14T07:36:30.516Z,4.70
2023-05-14T07:39:02.495Z,4.80
2023-05-14T07:41:32.758Z,4.80
2023-05-14T07:44:03.244Z,5.00
2023-05-14T07:46:33.657Z,5.20
2023-05-14T07:49:03.799Z,5.30
2023-05-14T07:51:34.214Z,5.40
2023-05-14T07:54:06.282Z,5.50
2023-05-14T07:56:36.880Z,5.60
2023-05-14T07:59:07.885Z,5.70
2023-05-14T08:01:40.720Z,5.70
2023-05-14T08:04:12.330Z,5.70
2023-05-14T08:06:42.979Z,5.70
2023-05-14T08:09:14.742Z,5.70
2023-05-14T08:11:44.935Z,5.70
2023-05-14T08:14:15.344Z,5.80
2023-05-14T08:16:45.920Z,5.80
2023-05-14T08:19:16.417Z,5.90
2023-05-14T08:21:47.049Z,5.90
2023-05-14T08:24:18.799Z,5.90
2023-05-14T08:26:49.128Z,6.00
2023-05-14T08:29:19.361Z,6.10
2023-05-14T08:31:49.742Z,6.10
2023-05-14T08:34:20.203Z,6.20
2023-05-14T08:36:50.410Z,6.20
2023-05-14T08:39:22.261Z,6.20
2023-05-14T08:41:52.889Z,6.20
2023-05-14T08:44:27.242Z,6.20
2023-05-14T08:46:58.333Z,6.00
2023-05-14T08:49:42.415Z,5.90
2023-05-14T08:52:13.515Z,5.60
2023-05-14T08:54:45.677Z,5.30
2023-05-14T08:57:17.175Z,5.10
2023-05-14T08:59:47.915Z,4.80
2023-05-14T09:02:18.890Z,4.60
2023-05-14T09:04:49.855Z,4.50
2023-05-14T09:07:20.187Z,4.50
2023-05-14T09:09:52.651Z,4.40
2023-05-14T09:12:23.912Z,4.30
2023-05-14T09:14:54.359Z,4.10
2023-05-14T09:17:27.825Z,4.00
2023-05-14T09:19:58.245Z,3.80
2023-05-14T09:22:32.558Z,3.80
2023-05-14T09:25:08.998Z,3.70
2023-05-14T09:27:39.470Z,3.70
2023-05-14T09:30:12.193Z,3.60
2023-05-14T09:32:44.651Z,3.60
2023-05-14T09:35:19.370Z,3.60
2023-05-14T09:37:51.192Z,3.60
2023-05-14T09:40:24.684Z,3.60
2023-05-14T09:42:55.416Z,3.50
2023-05-14T09:45:25.752Z,3.40
2023-05-14T09:47:56.636Z,3.40
2023-05-14T09:50:27.112Z,3.40
2023-05-14T09:52:58.476Z,3.40
2023-05-14T09:55:31.394Z,3.40
2023-05-14T09:58:02.153Z,3.30
2023-05-14T10:00:33.801Z,3.30
2023-05-14T10:03:09.815Z,3.20
2023-05-14T10:05:42.387Z,3.20
2023-05-14T10:08:16.999Z,3.10
2023-05-14T10:10:48.899Z,3.20
2023-05-14T10:13:23.151Z,3.20
2023-05-14T10:15:58.127Z,3.20
2023-05-14T10:18:30.513Z,3.30
2023-05-14T10:21:06.350Z,3.40
2023-05-14T10:23:38.606Z,3.50
2023-05-14T10:26:11.835Z,3.60
2023-05-14T10:28:43.104Z,3.70
2023-05-14T10:31:13.629Z,3.80
2023-05-14T10:33:51.063Z,3.90
2023-05-14T10:36:22.909Z,4.00
2023-05-14T10:38:58.686Z,4.10
2023-05-14T10:41:30.461Z,4.10
2023-05-14T10:44:01.621Z,4.10
2023-05-14T10:46:32.049Z,4.20
2023-05-14T10:49:02.661Z,4.30
2023-05-14T10:51:34.112Z,4.30
2023-05-14T10:54:04.485Z,4.40
2023-05-14T10:56:36.920Z,4.40
2023-05-14T10:59:10.409Z,4.40
2023-05-14T11:01:43.583Z,4.60
2023-05-14T11:04:21.544Z,4.70
2023-05-14T11:06:53.567Z,4.90
2023-05-14T11:09:25.088Z,5.00
2023-05-14T11:11:58.075Z,5.10
2023-05-14T11:14:28.476Z,5.30
2023-05-14T11:16:59.679Z,5.50
2023-05-14T11:19:29.958Z,5.70
2023-05-14T11:22:01.850Z,5.80
2023-05-14T11:24:32.317Z,6.00
2023-05-14T11:27:04.265Z,6.10
2023-05-14T11:29:34.612Z,6.30
2023-05-14T11:32:07.429Z,6.40
2023-05-14T11:34:38.113Z,6.60
2023-05-14T11:37:08.818Z,6.80
2023-05-14T11:39:39.728Z,6.90
2023-05-14T11:42:17.368Z,7.10
2023-05-14T11:44:49.684Z,7.20
2023-05-14T11:47:21.742Z,7.30
2023-05-14T11:49:52.327Z,7.50
2023-05-14T11:52:22.568Z,7.60
2023-05-14T11:54:52.770Z,7.70
2023-05-14T11:57:25.887Z,7.70
2023-05-14T12:00:00.204Z,7.70
2023-05-14T12:02:31.241Z,7.70
2023-05-14T12:05:03.811Z,7.70
2023-05-14T12:07:33.978Z,7.70
2023-05-14T12:10:05.662Z,7.70
2023-05-14T12:12:39.919Z,7.80
2023-05-14T12:15:14.841Z,7.80
2023-05-14T12:17:45.213Z,7.90
2023-05-14T12:20:16.179Z,8.00
2023-05-14T12:22:46.424Z,8.10
2023-05-14T12:25:16.719Z,8.10
2023-05-14T12:27:49.284Z,8.10
2023-05-14T12:30:21.429Z,8.20
2023-05-14T12:32:57.843Z,8.30
2023-05-14T12:35:28.216Z,8.40
2023-05-14T12:37:58.344Z,8.50
2023-05-14T12:40:28.562Z,8.60
2023-05-14T12:43:00.927Z,8.50
2023-05-14T12:45:33.587Z,8.60
2023-05-14T12:48:03.769Z,8.60
2023-05-14T12:50:34.288Z,8.70
2023-05-14T12:53:05.276Z,8.80
2023-05-14T12:55:36.201Z,8.90
2023-05-14T12:58:08.652Z,9.00
2023-05-14T13:00:39.328Z,9.00
2023-05-14T13:03:09.565Z,8.90
2023-05-14T13:05:39.954Z,8.90
2023-05-14T13:08:12.030Z,9.00
2023-05-14T13:10:42.276Z,9.10
2023-05-14T13:13:18.549Z,9.20
2023-05-14T13:15:48.851Z,9.40
2023-05-14T13:18:20.054Z,9.40
2023-05-14T13:20:50.817Z,9.50
2023-05-14T13:23:21.006Z,9.50
2023-05-14T13:25:52.040Z,9.50
2023-05-14T13:28:24.131Z,9.50
2023-05-14T13:31:08.523Z,9.60
2023-05-14T13:33:40.385Z,9.60
2023-05-14T13:36:12.434Z,9.70
2023-05-14T13:38:42.927Z,9.80
2023-05-14T13:41:13.413Z,9.90
2023-05-14T13:43:45.197Z,10.00
2023-05-14T13:46:15.417Z,10.10
2023-05-14T13:48:45.650Z,10.10
2023-05-14T13:51:16.442Z,10.20
2023-05-14T13:53:46.807Z,10.30
2023-05-14T13:56:17.611Z,10.40
2023-05-14T13:58:49.872Z,10.60
2023-05-14T14:01:20.511Z,10.70
2023-05-14T14:03:50.746Z,10.70
2023-05-14T14:06:21.482Z,10.70
2023-05-14T14:08:51.654Z,10.70
2023-05-14T14:11:22.173Z,10.80
2023-05-14T14:13:55.055Z,10.90
2023-05-14T14:16:25.674Z,11.10
2023-05-14T14:18:56.092Z,11.10
2023-05-14T14:21:26.346Z,11.20
2023-05-14T14:23:57.191Z,11.20
2023-05-14T14:26:28.493Z,11.40
2023-05-14T14:29:00.320Z,11.50
2023-05-14T14:31:30.607Z,11.60
2023-05-14T14:34:00.975Z,11.60
2023-05-14T14:36:31.595Z,11.60
2023-05-14T14:39:01.779Z,11.70
2023-05-14T14:41:32.123Z,11.70
2023-05-14T14:44:04.232Z,11.70
2023-05-14T14:46:34.632Z,11.80
2023-05-14T14:49:04.843Z,12.00
2023-05-14T14:51:35.248Z,12.00
2023-05-14T14:54:06.737Z,12.20
2023-05-14T14:56:37.937Z,12.30
2023-05-14T14:59:09.736Z,12.30
2023-05-14T15:01:42.684Z,12.30
2023-05-14T15:04:13.044Z,12.40
2023-05-14T15:06:43.276Z,12.60
2023-05-14T15:09:13.424Z,12.70
2023-05-14T15:11:43.919Z,12.80
2023-05-14T15:14:16.034Z,13.00
2023-05-14T15:16:47.191Z,13.10
2023-05-14T15:19:19.305Z,13.10
2023-05-14T15:21:49.613Z,13.00
2023-05-14T15:24:19.860Z,13.10
2023-05-14T15:26:51.007Z,13.20
2023-05-14T15:29:24.451Z,13.30
2023-05-14T15:31:55.465Z,13.40
2023-05-14T15:34:25.875Z,13.40
2023-05-14T15:36:56.275Z,13.40
2023-05-14T15:39:27.290Z,13.70
2023-05-14T15:41:59.128Z,13.80
2023-05-14T15:44:33.104Z,14.10
2023-05-14T15:47:03.333Z,14.10
2023-05-14T15:49:33.546Z,14.50
2023-05-14T15:52:04.239Z,14.60
2023-05-14T15:54:34.440Z,14.80
2023-05-14T15:57:05.305Z,15.00
2023-05-14T15:59:37.176Z,15.40
2023-05-14T16:02:08.254Z,15.50
2023-05-14T16:04:38.954Z,15.80
2023-05-14T16:07:11.672Z,15.80
2023-05-14T16:09:42.203Z,16.10
2023-05-14T16:12:13.092Z,16.30
2023-05-14T16:14:45.886Z,16.50
2023-05-14T16:17:16.114Z,16.60
2023-05-14T16:19:48.283Z,16.80
2023-05-14T16:22:18.672Z,16.90
2023-05-14T16:24:48.930Z,17.00
2023-05-14T16:27:19.831Z,17.00
2023-05-14T16:29:51.662Z,17.20
2023-05-14T16:32:22.332Z,17.10
2023-05-14T16:34:52.829Z,17.40
2023-05-14T16:37:23.067Z,17.30
2023-05-14T16:39:53.635Z,17.60
2023-05-14T16:42:24.054Z,17.90
2023-05-14T16:44:55.829Z,18.10
2023-05-14T16:47:26.265Z,18.10
2023-05-14T16:49:56.465Z,18.20
2023-05-14T16:52:26.806Z,18.40
2023-05-14T16:55:01.877Z,18.50
2023-05-14T16:57:32.290Z,18.70
2023-05-14T17:00:21.573Z,19.10
2023-05-14T17:03:44.345Z,18.80
2023-05-14T17:06:39.964Z,18.90
2023-05-14T17:09:10.242Z,19.00
2023-05-14T17:11:40.824Z,19.10
2023-05-14T17:14:11.024Z,19.20
2023-05-14T17:16:43.001Z,19.10
2023-05-14T17:19:13.311Z,19.10
2023-05-14T17:21:43.703Z,19.00
2023-05-14T17:26:25.586Z,19.20
2023-05-14T17:28:55.961Z,19.60
2023-05-14T17:31:26.247Z,19.70
2023-05-14T17:33:56.602Z,20.30
2023-05-14T17:36:27.236Z,20.10
2023-05-14T17:43:09.941Z,20.20
2023-05-14T17:45:52.955Z,20.30
2023-05-14T17:48:24.615Z,20.20
2023-05-14T17:50:54.953Z,20.50
2023-05-14T17:53:25.182Z,20.80
2023-05-14T17:55:55.396Z,20.60
2023-05-14T17:58:25.744Z,20.50
2023-05-14T18:00:57.775Z,20.30
2023-05-14T18:03:28.431Z,20.30
2023-05-14T18:05:59.509Z,20.60
2023-05-14T18:08:30.282Z,20.70
2023-05-14T18:11:01.412Z,20.80
2023-05-14T18:13:31.601Z,20.60
2023-05-14T18:16:03.510Z,20.90
2023-05-14T18:18:34.461Z,21.00
2023-05-14T18:21:04.642Z,20.90
2023-05-14T18:23:34.967Z,20.70
2023-05-14T18:26:05.720Z,20.80
2023-05-14T18:28:36.005Z,20.80
2023-05-14T18:31:08.033Z,20.80
2023-05-14T18:33:38.305Z,20.80
2023-05-14T18:36:08.830Z,20.60
2023-05-14T18:38:39.090Z,20.20
2023-05-14T18:41:09.929Z,20.00
2023-05-14T18:43:40.459Z,20.20
2023-05-14T18:46:12.879Z,20.30
2023-05-14T18:48:43.133Z,20.50
2023-05-14T18:51:13.850Z,20.20
2023-05-14T18:53:44.315Z,20.30
2023-05-14T18:56:14.504Z,20.60
2023-05-14T18:58:44.769Z,20.80
2023-05-14T19:01:16.836Z,20.80
2023-05-14T19:03:47.264Z,20.80
2023-05-14T19:06:17.533Z,20.50
2023-05-14T19:08:48.058Z,20.60
2023-05-14T19:11:18.859Z,20.90
2023-05-14T19:13:50.263Z,20.60
2023-05-14T19:16:22.576Z,20.00
2023-05-14T19:18:53.094Z,20.10
2023-05-14T19:21:23.320Z,20.00
2023-05-14T19:23:53.839Z,20.00
2023-05-14T19:26:24.375Z,20.30
2023-05-14T19:28:59.116Z,20.80
2023-05-14T19:31:31.187Z,21.00
2023-05-14T19:34:01.878Z,21.20
2023-05-14T19:36:33.277Z,20.80
2023-05-14T19:39:03.822Z,20.90
2023-05-14T19:41:33.959Z,20.90
2023-05-14T19:44:04.284Z,20.80
2023-05-14T19:46:36.168Z,20.80
2023-05-14T19:49:06.466Z,20.70
2023-05-14T19:51:37.000Z,20.40
2023-05-14T19:54:07.463Z,20.40
2023-05-14T19:56:38.928Z,20.20
2023-05-14T19:59:09.182Z,20.60
2023-05-14T20:01:42.661Z,20.40
2023-05-14T20:04:14.671Z,20.20
2023-05-14T20:06:46.390Z,20.30
2023-05-14T20:09:16.676Z,20.30
2023-05-14T20:11:47.644Z,20.20
2023-05-14T20:14:18.025Z,20.30
2023-05-14T20:16:50.070Z,20.50
2023-05-14T20:19:21.672Z,20.30
2023-05-14T20:21:51.860Z,20.50
2023-05-14T20:24:22.484Z,20.80
2023-05-14T20:26:53.254Z,21.10
2023-05-14T20:29:23.668Z,20.90
2023-05-14T20:31:57.007Z,21.10
2023-05-14T20:34:27.741Z,21.20
2023-05-14T20:37:00.814Z,21.00
2023-05-14T20:39:31.081Z,20.90
2023-05-14T20:42:01.404Z,20.90
2023-05-14T20:44:31.982Z,20.70
2023-05-14T20:47:06.184Z,20.40
2023-05-14T20:49:36.455Z,20.70
2023-05-14T20:52:07.084Z,20.90
2023-05-14T20:54:37.821Z,20.90
2023-05-14T20:57:08.360Z,21.10
2023-05-14T20:59:38.544Z,21.10
2023-05-14T21:02:11.339Z,20.90
2023-05-14T21:04:42.120Z,21.30
2023-05-14T21:07:12.323Z,21.40
2023-05-14T21:09:42.804Z,21.70
2023-05-14T21:12:13.609Z,21.30
2023-05-14T21:14:44.182Z,21.30
2023-05-14T21:17:16.585Z,21.30
2023-05-14T21:19:47.002Z,21.40
2023-05-14T21:22:18.640Z,21.10
2023-05-14T21:24:50.800Z,20.70
2023-05-14T21:27:21.697Z,20.70
2023-05-14T21:29:51.924Z,20.70
2023-05-14T21:32:25.754Z,21.00
2023-05-14T21:34:55.996Z,21.00
2023-05-14T21:37:26.185Z,21.00
2023-05-14T21:39:56.474Z,20.90
2023-05-14T21:42:26.923Z,21.00
2023-05-14T21:44:57.069Z,21.10
2023-05-14T21:47:30.113Z,21.00
2023-05-14T21:50:00.663Z,21.10
2023-05-14T21:52:31.770Z,21.20
2023-05-14T21:55:02.112Z,21.10
2023-05-14T21:57:34.603Z,21.10
2023-05-14T22:00:08.581Z,20.90
2023-05-14T22:02:40.411Z,21.10
2023-05-14T22:05:10.970Z,21.10
2023-05-14T22:07:41.908Z,21.00
2023-05-14T22:10:13.996Z,20.80
2023-05-14T22:12:45.785Z,20.90
2023-05-14T22:15:16.428Z,20.60
2023-05-14T22:17:49.127Z,20.70
2023-05-14T22:20:19.423Z,20.80
2023-05-14T22:22:49.637Z,20.90
2023-05-14T22:25:21.133Z,20.70
2023-05-14T22:27:51.679Z,20.70
2023-05-14T22:30:21.930Z,20.60
2023-05-14T22:32:54.339Z,20.50
2023-05-14T22:35:26.294Z,20.40
2023-05-14T22:37:56.882Z,20.20
2023-05-14T22:40:30.553Z,20.00
2023-05-14T22:43:01.437Z,19.70
2023-05-14T22:45:32.681Z,19.70
2023-05-14T22:48:05.915Z,19.70
2023-05-14T22:50:37.238Z,19.60
2023-05-14T22:53:08.456Z,19.60
2023-05-14T22:55:39.516Z,19.40
2023-05-14T22:58:10.284Z,19.30
2023-05-14T23:00:40.912Z,19.20
2023-05-14T23:03:13.079Z,19.30
2023-05-14T23:05:44.109Z,19.30
2023-05-14T23:08:15.485Z,19.20
2023-05-14T23:10:46.106Z,19.20
2023-05-14T23:13:16.969Z,19.10
2023-05-14T23:15:48.090Z,19.10
2023-05-14T23:18:20.958Z,19.00
2023-05-14T23:20:51.688Z,18.90
2023-05-14T23:23:21.808Z,18.90
2023-05-14T23:25:53.198Z,18.80
2023-05-14T23:28:23.919Z,18.70
2023-05-14T23:30:54.294Z,18.70
2023-05-14T23:33:26.294Z,18.60
2023-05-14T23:35:57.223Z,18.40
2023-05-14T23:38:27.543Z,18.20
2023-05-14T23:40:57.948Z,18.10
2023-05-14T23:43:28.425Z,17.90
2023-05-14T23:45:59.173Z,17.80
2023-05-14T23:48:31.746Z,17.60
2023-05-14T23:51:01.999Z,17.40
2023-05-14T23:53:32.809Z,17.20
2023-05-14T23:56:03.290Z,16.90
2023-05-14T23:58:34.289Z,16.70
